sensor_id;sensor_type;location;lat;lon;timestamp;temperature;humidity
71727;DHT22;59573;43.486;3.674;2022-12-07T00:01:25;2.10;86.60
71727;DHT22;59573;43.486;3.674;2022-12-07T00:03:53;2.10;86.30
71727;DHT22;59573;43.486;3.674;2022-12-07T00:06:20;2.20;86.30
71727;DHT22;59573;43.486;3.674;2022-12-07T00:08:47;2.20;85.60
71727;DHT22;59573;43.486;3.674;2022-12-07T00:11:20;2.30;86.00
71727;DHT22;59573;43.486;3.674;2022-12-07T00:13:50;2.20;85.70
71727;DHT22;59573;43.486;3.674;2022-12-07T00:16:18;2.20;85.50
71727;DHT22;59573;43.486;3.674;2022-12-07T00:18:45;2.30;84.80
71727;DHT22;59573;43.486;3.674;2022-12-07T00:21:40;2.30;85.30
71727;DHT22;59573;43.486;3.674;2022-12-07T00:24:06;2.20;86.50
71727;DHT22;59573;43.486;3.674;2022-12-07T00:26:34;2.20;86.10
71727;DHT22;59573;43.486;3.674;2022-12-07T00:29:03;2.00;86.30
71727;DHT22;59573;43.486;3.674;2022-12-07T00:31:35;1.90;86.70
71727;DHT22;59573;43.486;3.674;2022-12-07T00:34:09;1.80;86.80
71727;DHT22;59573;43.486;3.674;2022-12-07T00:36:36;1.80;86.60
71727;DHT22;59573;43.486;3.674;2022-12-07T00:39:02;1.90;86.20
71727;DHT22;59573;43.486;3.674;2022-12-07T00:41:29;1.80;85.90
71727;DHT22;59573;43.486;3.674;2022-12-07T00:43:56;1.70;86.20
71727;DHT22;59573;43.486;3.674;2022-12-07T00:46:22;1.60;87.20
71727;DHT22;59573;43.486;3.674;2022-12-07T00:48:49;1.50;86.90
71727;DHT22;59573;43.486;3.674;2022-12-07T00:51:16;1.60;86.90
71727;DHT22;59573;43.486;3.674;2022-12-07T00:53:42;1.50;86.90
71727;DHT22;59573;43.486;3.674;2022-12-07T00:56:13;1.40;86.90
71727;DHT22;59573;43.486;3.674;2022-12-07T00:58:39;1.40;86.80
71727;DHT22;59573;43.486;3.674;2022-12-07T01:01:06;1.40;87.50
71727;DHT22;59573;43.486;3.674;2022-12-07T01:03:32;1.50;87.40
71727;DHT22;59573;43.486;3.674;2022-12-07T01:05:59;1.50;87.30
71727;DHT22;59573;43.486;3.674;2022-12-07T01:08:26;1.60;87.60
71727;DHT22;59573;43.486;3.674;2022-12-07T01:11:03;1.50;87.40
71727;DHT22;59573;43.486;3.674;2022-12-07T01:13:30;1.30;87.70
71727;DHT22;59573;43.486;3.674;2022-12-07T01:16:00;1.40;88.00
71727;DHT22;59573;43.486;3.674;2022-12-07T01:18:27;1.40;87.80
71727;DHT22;59573;43.486;3.674;2022-12-07T01:21:12;1.40;87.50
71727;DHT22;59573;43.486;3.674;2022-12-07T01:23:39;1.40;86.80
71727;DHT22;59573;43.486;3.674;2022-12-07T01:26:07;1.30;87.30
71727;DHT22;59573;43.486;3.674;2022-12-07T01:28:34;1.30;86.90
71727;DHT22;59573;43.486;3.674;2022-12-07T01:31:03;1.20;87.20
71727;DHT22;59573;43.486;3.674;2022-12-07T01:33:32;1.10;86.70
71727;DHT22;59573;43.486;3.674;2022-12-07T01:36:08;1.10;87.50
71727;DHT22;59573;43.486;3.674;2022-12-07T01:38:38;1.10;86.60
71727;DHT22;59573;43.486;3.674;2022-12-07T01:41:04;1.10;86.70
71727;DHT22;59573;43.486;3.674;2022-12-07T01:43:31;1.10;87.20
71727;DHT22;59573;43.486;3.674;2022-12-07T01:45:57;1.30;86.80
71727;DHT22;59573;43.486;3.674;2022-12-07T01:48:31;1.60;85.30
71727;DHT22;59573;43.486;3.674;2022-12-07T01:51:01;1.50;84.70
71727;DHT22;59573;43.486;3.674;2022-12-07T01:53:30;1.40;84.60
71727;DHT22;59573;43.486;3.674;2022-12-07T01:55:58;1.30;85.10
71727;DHT22;59573;43.486;3.674;2022-12-07T01:58:25;1.20;85.50
71727;DHT22;59573;43.486;3.674;2022-12-07T02:00:51;1.30;86.00
71727;DHT22;59573;43.486;3.674;2022-12-07T02:03:34;1.30;86.50
71727;DHT22;59573;43.486;3.674;2022-12-07T02:06:02;1.30;85.40
71727;DHT22;59573;43.486;3.674;2022-12-07T02:08:29;1.40;85.70
71727;DHT22;59573;43.486;3.674;2022-12-07T02:10:55;1.50;85.80
71727;DHT22;59573;43.486;3.674;2022-12-07T02:13:29;1.60;85.60
71727;DHT22;59573;43.486;3.674;2022-12-07T02:29:47;1.90;84.00
71727;DHT22;59573;43.486;3.674;2022-12-07T02:34:58;1.70;83.30
71727;DHT22;59573;43.486;3.674;2022-12-07T02:40:04;1.20;84.50
71727;DHT22;59573;43.486;3.674;2022-12-07T02:42:36;1.20;84.80
71727;DHT22;59573;43.486;3.674;2022-12-07T02:45:05;1.10;85.20
71727;DHT22;59573;43.486;3.674;2022-12-07T02:47:32;1.10;85.40
71727;DHT22;59573;43.486;3.674;2022-12-07T02:49:59;1.00;85.90
71727;DHT22;59573;43.486;3.674;2022-12-07T02:52:27;1.00;86.10
71727;DHT22;59573;43.486;3.674;2022-12-07T02:54:53;1.00;86.30
71727;DHT22;59573;43.486;3.674;2022-12-07T03:00:12;1.10;86.00
71727;DHT22;59573;43.486;3.674;2022-12-07T03:02:59;1.10;86.20
71727;DHT22;59573;43.486;3.674;2022-12-07T03:08:29;1.10;86.20
71727;DHT22;59573;43.486;3.674;2022-12-07T03:11:00;1.10;85.90
71727;DHT22;59573;43.486;3.674;2022-12-07T03:18:51;1.20;85.20
71727;DHT22;59573;43.486;3.674;2022-12-07T03:21:21;1.20;84.90
71727;DHT22;59573;43.486;3.674;2022-12-07T03:23:51;1.20;85.10
71727;DHT22;59573;43.486;3.674;2022-12-07T03:26:19;1.10;85.30
71727;DHT22;59573;43.486;3.674;2022-12-07T03:28:52;1.20;85.00
71727;DHT22;59573;43.486;3.674;2022-12-07T03:31:27;1.10;85.50
71727;DHT22;59573;43.486;3.674;2022-12-07T03:37:04;1.10;85.20
71727;DHT22;59573;43.486;3.674;2022-12-07T03:39:39;1.20;84.70
71727;DHT22;59573;43.486;3.674;2022-12-07T03:42:07;1.20;84.50
71727;DHT22;59573;43.486;3.674;2022-12-07T03:44:34;1.20;85.10
71727;DHT22;59573;43.486;3.674;2022-12-07T03:47:29;1.30;84.40
71727;DHT22;59573;43.486;3.674;2022-12-07T03:53:02;1.40;83.30
71727;DHT22;59573;43.486;3.674;2022-12-07T03:55:33;1.40;83.40
71727;DHT22;59573;43.486;3.674;2022-12-07T03:58:06;1.50;82.70
71727;DHT22;59573;43.486;3.674;2022-12-07T04:00:33;1.50;82.90
71727;DHT22;59573;43.486;3.674;2022-12-07T04:02:59;1.40;83.00
71727;DHT22;59573;43.486;3.674;2022-12-07T04:05:25;1.40;82.80
71727;DHT22;59573;43.486;3.674;2022-12-07T04:07:51;1.50;82.40
71727;DHT22;59573;43.486;3.674;2022-12-07T04:10:17;1.50;82.20
71727;DHT22;59573;43.486;3.674;2022-12-07T04:12:43;1.60;81.90
71727;DHT22;59573;43.486;3.674;2022-12-07T04:15:09;1.70;81.10
71727;DHT22;59573;43.486;3.674;2022-12-07T04:17:35;1.70;81.00
71727;DHT22;59573;43.486;3.674;2022-12-07T04:20:01;1.80;80.60
71727;DHT22;59573;43.486;3.674;2022-12-07T04:22:27;1.70;80.90
71727;DHT22;59573;43.486;3.674;2022-12-07T04:24:53;1.70;81.10
71727;DHT22;59573;43.486;3.674;2022-12-07T04:27:18;1.60;81.40
71727;DHT22;59573;43.486;3.674;2022-12-07T04:29:44;1.60;81.20
71727;DHT22;59573;43.486;3.674;2022-12-07T04:32:10;1.60;81.00
71727;DHT22;59573;43.486;3.674;2022-12-07T04:34:36;1.70;80.50
71727;DHT22;59573;43.486;3.674;2022-12-07T04:37:02;1.60;80.90
71727;DHT22;59573;43.486;3.674;2022-12-07T04:39:29;1.60;81.40
71727;DHT22;59573;43.486;3.674;2022-12-07T04:41:56;1.50;81.00
71727;DHT22;59573;43.486;3.674;2022-12-07T04:44:23;1.50;82.40
71727;DHT22;59573;43.486;3.674;2022-12-07T04:46:49;1.50;81.40
71727;DHT22;59573;43.486;3.674;2022-12-07T04:49:15;1.50;81.50
71727;DHT22;59573;43.486;3.674;2022-12-07T04:51:41;1.50;81.40
71727;DHT22;59573;43.486;3.674;2022-12-07T04:54:07;1.50;81.70
71727;DHT22;59573;43.486;3.674;2022-12-07T04:56:33;1.50;81.80
71727;DHT22;59573;43.486;3.674;2022-12-07T04:59:01;1.50;81.20
71727;DHT22;59573;43.486;3.674;2022-12-07T05:01:27;1.50;81.90
71727;DHT22;59573;43.486;3.674;2022-12-07T05:03:53;1.50;81.50
71727;DHT22;59573;43.486;3.674;2022-12-07T05:06:19;1.50;81.50
71727;DHT22;59573;43.486;3.674;2022-12-07T05:08:45;1.50;81.00
71727;DHT22;59573;43.486;3.674;2022-12-07T05:11:11;1.50;81.00
71727;DHT22;59573;43.486;3.674;2022-12-07T05:13:57;1.60;80.70
71727;DHT22;59573;43.486;3.674;2022-12-07T05:16:23;1.50;81.10
71727;DHT22;59573;43.486;3.674;2022-12-07T05:18:49;1.50;81.10
71727;DHT22;59573;43.486;3.674;2022-12-07T05:21:14;1.50;81.40
71727;DHT22;59573;43.486;3.674;2022-12-07T05:23:40;1.50;81.30
71727;DHT22;59573;43.486;3.674;2022-12-07T05:26:06;1.40;82.80
71727;DHT22;59573;43.486;3.674;2022-12-07T05:28:31;1.30;82.70
71727;DHT22;59573;43.486;3.674;2022-12-07T05:30:57;1.20;83.20
71727;DHT22;59573;43.486;3.674;2022-12-07T05:33:23;1.10;83.40
71727;DHT22;59573;43.486;3.674;2022-12-07T05:35:48;1.00;84.80
71727;DHT22;59573;43.486;3.674;2022-12-07T05:38:14;1.00;84.90
71727;DHT22;59573;43.486;3.674;2022-12-07T05:40:40;1.00;84.90
71727;DHT22;59573;43.486;3.674;2022-12-07T05:43:05;1.00;85.20
71727;DHT22;59573;43.486;3.674;2022-12-07T05:45:31;0.80;85.20
71727;DHT22;59573;43.486;3.674;2022-12-07T05:47:57;0.70;86.10
71727;DHT22;59573;43.486;3.674;2022-12-07T05:50:23;0.60;85.60
71727;DHT22;59573;43.486;3.674;2022-12-07T05:52:49;0.60;86.00
71727;DHT22;59573;43.486;3.674;2022-12-07T05:55:14;0.50;86.50
71727;DHT22;59573;43.486;3.674;2022-12-07T05:57:40;0.40;86.10
71727;DHT22;59573;43.486;3.674;2022-12-07T06:00:26;0.40;86.60
71727;DHT22;59573;43.486;3.674;2022-12-07T06:02:51;0.30;87.20
71727;DHT22;59573;43.486;3.674;2022-12-07T06:05:17;0.50;87.50
71727;DHT22;59573;43.486;3.674;2022-12-07T06:07:43;0.50;87.10
71727;DHT22;59573;43.486;3.674;2022-12-07T06:10:09;0.60;87.40
71727;DHT22;59573;43.486;3.674;2022-12-07T06:12:35;0.60;86.70
71727;DHT22;59573;43.486;3.674;2022-12-07T06:15:00;0.70;86.90
71727;DHT22;59573;43.486;3.674;2022-12-07T06:17:26;0.90;86.20
71727;DHT22;59573;43.486;3.674;2022-12-07T06:19:52;0.90;86.20
71727;DHT22;59573;43.486;3.674;2022-12-07T06:22:18;0.90;85.60
71727;DHT22;59573;43.486;3.674;2022-12-07T06:24:44;0.70;86.00
71727;DHT22;59573;43.486;3.674;2022-12-07T06:27:09;0.60;86.20
71727;DHT22;59573;43.486;3.674;2022-12-07T06:29:35;0.60;87.00
71727;DHT22;59573;43.486;3.674;2022-12-07T06:32:02;0.60;87.10
71727;DHT22;59573;43.486;3.674;2022-12-07T06:34:28;0.60;87.40
71727;DHT22;59573;43.486;3.674;2022-12-07T06:36:54;0.50;87.60
71727;DHT22;59573;43.486;3.674;2022-12-07T06:39:26;0.60;87.10
71727;DHT22;59573;43.486;3.674;2022-12-07T06:41:52;0.50;86.80
71727;DHT22;59573;43.486;3.674;2022-12-07T06:44:19;0.50;87.20
71727;DHT22;59573;43.486;3.674;2022-12-07T06:46:45;0.50;87.60
71727;DHT22;59573;43.486;3.674;2022-12-07T06:49:11;0.60;87.70
71727;DHT22;59573;43.486;3.674;2022-12-07T06:51:37;0.60;87.50
71727;DHT22;59573;43.486;3.674;2022-12-07T06:54:07;0.60;87.30
71727;DHT22;59573;43.486;3.674;2022-12-07T06:56:33;0.50;86.60
71727;DHT22;59573;43.486;3.674;2022-12-07T06:58:59;0.50;86.90
71727;DHT22;59573;43.486;3.674;2022-12-07T07:01:24;0.50;87.80
71727;DHT22;59573;43.486;3.674;2022-12-07T07:03:50;0.70;86.70
71727;DHT22;59573;43.486;3.674;2022-12-07T07:06:16;0.60;86.60
71727;DHT22;59573;43.486;3.674;2022-12-07T07:08:42;0.70;85.90
71727;DHT22;59573;43.486;3.674;2022-12-07T07:11:08;0.50;84.10
71727;DHT22;59573;43.486;3.674;2022-12-07T07:13:34;0.40;85.60
71727;DHT22;59573;43.486;3.674;2022-12-07T07:16:00;0.30;86.00
71727;DHT22;59573;43.486;3.674;2022-12-07T07:18:25;0.20;85.10
71727;DHT22;59573;43.486;3.674;2022-12-07T07:20:51;0.10;85.20
71727;DHT22;59573;43.486;3.674;2022-12-07T07:23:18;0.00;85.80
71727;DHT22;59573;43.486;3.674;2022-12-07T07:25:44;0.10;86.50
71727;DHT22;59573;43.486;3.674;2022-12-07T07:28:10;0.20;86.50
71727;DHT22;59573;43.486;3.674;2022-12-07T07:30:36;0.20;87.00
71727;DHT22;59573;43.486;3.674;2022-12-07T07:33:03;0.20;86.80
71727;DHT22;59573;43.486;3.674;2022-12-07T07:35:31;0.30;85.90
71727;DHT22;59573;43.486;3.674;2022-12-07T07:37:57;0.20;85.60
71727;DHT22;59573;43.486;3.674;2022-12-07T07:40:23;0.10;86.30
71727;DHT22;59573;43.486;3.674;2022-12-07T07:42:50;0.10;85.30
71727;DHT22;59573;43.486;3.674;2022-12-07T07:45:16;0.10;86.70
71727;DHT22;59573;43.486;3.674;2022-12-07T07:47:42;0.10;86.30
71727;DHT22;59573;43.486;3.674;2022-12-07T07:50:08;0.10;85.80
71727;DHT22;59573;43.486;3.674;2022-12-07T07:52:34;0.10;86.80
71727;DHT22;59573;43.486;3.674;2022-12-07T07:55:00;0.20;86.70
71727;DHT22;59573;43.486;3.674;2022-12-07T07:57:25;0.30;86.80
71727;DHT22;59573;43.486;3.674;2022-12-07T07:59:51;0.30;85.70
71727;DHT22;59573;43.486;3.674;2022-12-07T08:02:18;0.40;86.60
71727;DHT22;59573;43.486;3.674;2022-12-07T08:04:45;0.40;85.90
71727;DHT22;59573;43.486;3.674;2022-12-07T08:07:11;0.40;86.10
71727;DHT22;59573;43.486;3.674;2022-12-07T08:09:37;0.50;86.20
71727;DHT22;59573;43.486;3.674;2022-12-07T08:12:03;0.60;85.70
71727;DHT22;59573;43.486;3.674;2022-12-07T08:14:29;0.70;85.10
71727;DHT22;59573;43.486;3.674;2022-12-07T08:16:55;0.80;84.40
71727;DHT22;59573;43.486;3.674;2022-12-07T08:19:20;1.00;83.60
71727;DHT22;59573;43.486;3.674;2022-12-07T08:21:46;1.10;83.00
71727;DHT22;59573;43.486;3.674;2022-12-07T08:24:13;1.20;83.00
71727;DHT22;59573;43.486;3.674;2022-12-07T08:26:39;1.20;83.70
71727;DHT22;59573;43.486;3.674;2022-12-07T08:29:05;1.30;84.10
71727;DHT22;59573;43.486;3.674;2022-12-07T08:31:31;1.30;84.70
71727;DHT22;59573;43.486;3.674;2022-12-07T08:33:56;1.30;85.10
71727;DHT22;59573;43.486;3.674;2022-12-07T08:36:23;1.40;84.50
71727;DHT22;59573;43.486;3.674;2022-12-07T08:38:49;1.50;83.20
71727;DHT22;59573;43.486;3.674;2022-12-07T08:41:15;1.60;84.20
71727;DHT22;59573;43.486;3.674;2022-12-07T08:43:41;1.60;83.90
71727;DHT22;59573;43.486;3.674;2022-12-07T08:49:02;1.90;82.70
71727;DHT22;59573;43.486;3.674;2022-12-07T08:51:29;2.20;81.00
71727;DHT22;59573;43.486;3.674;2022-12-07T08:53:55;2.40;79.50
71727;DHT22;59573;43.486;3.674;2022-12-07T08:56:23;2.80;77.70
71727;DHT22;59573;43.486;3.674;2022-12-07T08:58:50;2.80;77.60
71727;DHT22;59573;43.486;3.674;2022-12-07T09:01:16;3.10;75.60
71727;DHT22;59573;43.486;3.674;2022-12-07T09:03:41;3.10;75.40
71727;DHT22;59573;43.486;3.674;2022-12-07T09:06:07;3.00;75.70
71727;DHT22;59573;43.486;3.674;2022-12-07T09:08:37;3.10;75.80
71727;DHT22;59573;43.486;3.674;2022-12-07T09:11:04;3.00;76.10
71727;DHT22;59573;43.486;3.674;2022-12-07T09:13:30;3.10;76.20
71727;DHT22;59573;43.486;3.674;2022-12-07T09:15:56;3.10;75.80
71727;DHT22;59573;43.486;3.674;2022-12-07T09:18:22;3.30;75.90
71727;DHT22;59573;43.486;3.674;2022-12-07T09:20:49;3.40;75.30
71727;DHT22;59573;43.486;3.674;2022-12-07T09:23:15;3.40;74.90
71727;DHT22;59573;43.486;3.674;2022-12-07T09:25:41;3.50;74.40
71727;DHT22;59573;43.486;3.674;2022-12-07T09:28:06;3.80;73.10
71727;DHT22;59573;43.486;3.674;2022-12-07T09:30:32;3.80;73.20
71727;DHT22;59573;43.486;3.674;2022-12-07T09:32:58;3.90;72.90
71727;DHT22;59573;43.486;3.674;2022-12-07T09:35:25;3.90;74.00
71727;DHT22;59573;43.486;3.674;2022-12-07T09:37:51;3.90;73.90
71727;DHT22;59573;43.486;3.674;2022-12-07T09:40:20;4.00;73.10
71727;DHT22;59573;43.486;3.674;2022-12-07T09:42:50;4.00;74.00
71727;DHT22;59573;43.486;3.674;2022-12-07T09:45:30;4.20;72.80
71727;DHT22;59573;43.486;3.674;2022-12-07T09:47:57;4.30;72.90
71727;DHT22;59573;43.486;3.674;2022-12-07T09:50:26;4.50;71.40
71727;DHT22;59573;43.486;3.674;2022-12-07T09:52:53;4.50;72.00
71727;DHT22;59573;43.486;3.674;2022-12-07T09:55:24;4.70;71.00
71727;DHT22;59573;43.486;3.674;2022-12-07T09:57:52;4.80;70.60
71727;DHT22;59573;43.486;3.674;2022-12-07T10:00:20;4.80;71.60
71727;DHT22;59573;43.486;3.674;2022-12-07T10:02:59;4.90;70.70
71727;DHT22;59573;43.486;3.674;2022-12-07T10:05:35;5.00;71.30
71727;DHT22;59573;43.486;3.674;2022-12-07T10:08:03;5.00;71.90
71727;DHT22;59573;43.486;3.674;2022-12-07T10:10:34;5.10;70.70
71727;DHT22;59573;43.486;3.674;2022-12-07T10:13:37;5.20;69.80
71727;DHT22;59573;43.486;3.674;2022-12-07T10:16:03;5.40;68.40
71727;DHT22;59573;43.486;3.674;2022-12-07T10:18:34;5.40;68.30
71727;DHT22;59573;43.486;3.674;2022-12-07T10:21:16;5.40;68.90
71727;DHT22;59573;43.486;3.674;2022-12-07T10:26:29;5.70;67.80
71727;DHT22;59573;43.486;3.674;2022-12-07T10:28:56;5.60;67.60
71727;DHT22;59573;43.486;3.674;2022-12-07T10:31:23;5.60;68.90
71727;DHT22;59573;43.486;3.674;2022-12-07T10:33:52;5.70;68.20
71727;DHT22;59573;43.486;3.674;2022-12-07T10:36:26;5.80;67.80
71727;DHT22;59573;43.486;3.674;2022-12-07T10:41:18;5.80;67.80
71727;DHT22;59573;43.486;3.674;2022-12-07T10:43:56;6.10;65.30
71727;DHT22;59573;43.486;3.674;2022-12-07T10:49:21;6.10;65.30
71727;DHT22;59573;43.486;3.674;2022-12-07T10:57:03;6.20;66.20
71727;DHT22;59573;43.486;3.674;2022-12-07T11:02:36;6.40;64.40
71727;DHT22;59573;43.486;3.674;2022-12-07T11:08:03;6.00;66.10
71727;DHT22;59573;43.486;3.674;2022-12-07T11:10:58;5.90;67.10
71727;DHT22;59573;43.486;3.674;2022-12-07T11:16:32;6.00;66.40
71727;DHT22;59573;43.486;3.674;2022-12-07T11:24:19;6.30;65.90
71727;DHT22;59573;43.486;3.674;2022-12-07T11:35:34;6.50;64.70
71727;DHT22;59573;43.486;3.674;2022-12-07T11:38:13;7.00;63.40
71727;DHT22;59573;43.486;3.674;2022-12-07T11:40:40;7.10;62.50
71727;DHT22;59573;43.486;3.674;2022-12-07T11:43:31;7.10;62.90
71727;DHT22;59573;43.486;3.674;2022-12-07T11:46:14;7.00;63.90
71727;DHT22;59573;43.486;3.674;2022-12-07T11:48:51;7.20;62.80
71727;DHT22;59573;43.486;3.674;2022-12-07T11:51:20;7.10;63.10
71727;DHT22;59573;43.486;3.674;2022-12-07T11:53:52;6.90;63.60
71727;DHT22;59573;43.486;3.674;2022-12-07T11:56:22;6.90;64.50
71727;DHT22;59573;43.486;3.674;2022-12-07T11:58:57;7.20;63.40
71727;DHT22;59573;43.486;3.674;2022-12-07T12:07:07;7.60;61.80
71727;DHT22;59573;43.486;3.674;2022-12-07T12:09:46;7.70;61.10
71727;DHT22;59573;43.486;3.674;2022-12-07T12:20:41;7.50;62.90
71727;DHT22;59573;43.486;3.674;2022-12-07T12:23:18;7.70;62.00
71727;DHT22;59573;43.486;3.674;2022-12-07T12:25:50;7.90;61.60
71727;DHT22;59573;43.486;3.674;2022-12-07T12:28:39;7.80;61.70
71727;DHT22;59573;43.486;3.674;2022-12-07T12:31:15;7.90;60.90
71727;DHT22;59573;43.486;3.674;2022-12-07T12:33:48;7.50;62.60
71727;DHT22;59573;43.486;3.674;2022-12-07T12:39:09;7.60;62.30
71727;DHT22;59573;43.486;3.674;2022-12-07T12:47:02;7.60;62.50
71727;DHT22;59573;43.486;3.674;2022-12-07T12:51:55;7.60;63.50
71727;DHT22;59573;43.486;3.674;2022-12-07T12:54:24;7.60;62.60
71727;DHT22;59573;43.486;3.674;2022-12-07T13:15:39;8.20;60.00
71727;DHT22;59573;43.486;3.674;2022-12-07T13:20:47;7.90;62.00
71727;DHT22;59573;43.486;3.674;2022-12-07T13:23:16;7.90;61.80
71727;DHT22;59573;43.486;3.674;2022-12-07T13:25:59;8.30;60.60
71727;DHT22;59573;43.486;3.674;2022-12-07T13:28:33;8.40;60.00
71727;DHT22;59573;43.486;3.674;2022-12-07T13:31:03;8.10;61.20
71727;DHT22;59573;43.486;3.674;2022-12-07T13:33:30;8.30;60.70
71727;DHT22;59573;43.486;3.674;2022-12-07T13:35:56;8.50;60.70
71727;DHT22;59573;43.486;3.674;2022-12-07T13:38:31;8.70;59.40
71727;DHT22;59573;43.486;3.674;2022-12-07T13:41:10;8.70;59.70
71727;DHT22;59573;43.486;3.674;2022-12-07T13:46:44;8.50;61.00
71727;DHT22;59573;43.486;3.674;2022-12-07T13:51:49;8.00;62.00
71727;DHT22;59573;43.486;3.674;2022-12-07T13:54:15;8.00;62.40
71727;DHT22;59573;43.486;3.674;2022-12-07T13:56:41;8.20;61.80
71727;DHT22;59573;43.486;3.674;2022-12-07T13:59:22;8.20;61.20
71727;DHT22;59573;43.486;3.674;2022-12-07T14:01:50;8.70;59.10
71727;DHT22;59573;43.486;3.674;2022-12-07T14:04:31;8.60;60.20
71727;DHT22;59573;43.486;3.674;2022-12-07T14:06:57;8.60;59.00
71727;DHT22;59573;43.486;3.674;2022-12-07T14:09:25;8.60;59.90
71727;DHT22;59573;43.486;3.674;2022-12-07T14:11:54;8.80;59.10
71727;DHT22;59573;43.486;3.674;2022-12-07T14:14:30;8.60;59.80
71727;DHT22;59573;43.486;3.674;2022-12-07T14:17:28;8.50;60.00
71727;DHT22;59573;43.486;3.674;2022-12-07T14:19:56;8.80;59.10
71727;DHT22;59573;43.486;3.674;2022-12-07T14:24:58;8.80;59.00
71727;DHT22;59573;43.486;3.674;2022-12-07T14:27:24;8.60;59.70
71727;DHT22;59573;43.486;3.674;2022-12-07T14:29:56;8.70;59.30
71727;DHT22;59573;43.486;3.674;2022-12-07T14:32:25;8.60;59.50
71727;DHT22;59573;43.486;3.674;2022-12-07T14:34:56;8.70;59.10
71727;DHT22;59573;43.486;3.674;2022-12-07T14:37:22;8.70;59.30
71727;DHT22;59573;43.486;3.674;2022-12-07T14:39:48;8.80;59.00
71727;DHT22;59573;43.486;3.674;2022-12-07T14:42:13;8.80;58.30
71727;DHT22;59573;43.486;3.674;2022-12-07T14:44:39;8.70;58.80
71727;DHT22;59573;43.486;3.674;2022-12-07T14:47:05;8.60;59.90
71727;DHT22;59573;43.486;3.674;2022-12-07T14:49:30;8.50;60.30
71727;DHT22;59573;43.486;3.674;2022-12-07T14:51:56;8.50;60.40
71727;DHT22;59573;43.486;3.674;2022-12-07T14:54:25;8.70;60.10
71727;DHT22;59573;43.486;3.674;2022-12-07T14:56:52;8.60;60.10
71727;DHT22;59573;43.486;3.674;2022-12-07T14:59:19;8.40;60.80
71727;DHT22;59573;43.486;3.674;2022-12-07T15:01:45;8.40;61.10
71727;DHT22;59573;43.486;3.674;2022-12-07T15:04:11;8.40;60.60
71727;DHT22;59573;43.486;3.674;2022-12-07T15:06:36;8.50;60.60
71727;DHT22;59573;43.486;3.674;2022-12-07T15:09:03;8.40;60.80
71727;DHT22;59573;43.486;3.674;2022-12-07T15:11:28;8.30;61.10
71727;DHT22;59573;43.486;3.674;2022-12-07T15:13:54;8.40;60.40
71727;DHT22;59573;43.486;3.674;2022-12-07T15:16:39;8.30;61.20
71727;DHT22;59573;43.486;3.674;2022-12-07T15:19:13;8.30;60.90
71727;DHT22;59573;43.486;3.674;2022-12-07T15:21:40;8.10;61.50
71727;DHT22;59573;43.486;3.674;2022-12-07T15:24:06;8.20;61.10
71727;DHT22;59573;43.486;3.674;2022-12-07T15:26:33;8.20;60.90
71727;DHT22;59573;43.486;3.674;2022-12-07T15:28:59;8.10;61.20
71727;DHT22;59573;43.486;3.674;2022-12-07T15:31:24;8.00;61.60
71727;DHT22;59573;43.486;3.674;2022-12-07T15:33:50;8.00;61.80
71727;DHT22;59573;43.486;3.674;2022-12-07T15:36:24;7.80;62.80
71727;DHT22;59573;43.486;3.674;2022-12-07T15:38:50;7.70;64.00
71727;DHT22;59573;43.486;3.674;2022-12-07T15:41:17;7.40;65.10
71727;DHT22;59573;43.486;3.674;2022-12-07T15:43:43;7.20;66.00
71727;DHT22;59573;43.486;3.674;2022-12-07T15:46:35;6.80;68.30
71727;DHT22;59573;43.486;3.674;2022-12-07T15:49:01;6.40;69.70
71727;DHT22;59573;43.486;3.674;2022-12-07T15:51:27;6.20;70.80
71727;DHT22;59573;43.486;3.674;2022-12-07T15:53:53;6.30;70.10
71727;DHT22;59573;43.486;3.674;2022-12-07T15:56:19;6.20;69.90
71727;DHT22;59573;43.486;3.674;2022-12-07T15:58:46;5.90;71.30
71727;DHT22;59573;43.486;3.674;2022-12-07T16:01:16;5.50;74.20
71727;DHT22;59573;43.486;3.674;2022-12-07T16:03:43;5.40;74.40
71727;DHT22;59573;43.486;3.674;2022-12-07T16:06:10;5.40;74.80
71727;DHT22;59573;43.486;3.674;2022-12-07T16:08:36;5.30;75.20
71727;DHT22;59573;43.486;3.674;2022-12-07T16:11:06;5.10;76.70
71727;DHT22;59573;43.486;3.674;2022-12-07T16:13:32;5.00;76.20
71727;DHT22;59573;43.486;3.674;2022-12-07T16:15:58;5.20;74.70
71727;DHT22;59573;43.486;3.674;2022-12-07T16:18:27;5.30;73.90
71727;DHT22;59573;43.486;3.674;2022-12-07T16:20:52;5.50;72.40
71727;DHT22;59573;43.486;3.674;2022-12-07T16:23:18;5.50;72.40
71727;DHT22;59573;43.486;3.674;2022-12-07T16:25:44;5.30;73.80
71727;DHT22;59573;43.486;3.674;2022-12-07T16:28:10;5.10;75.10
71727;DHT22;59573;43.486;3.674;2022-12-07T16:30:35;5.10;73.20
71727;DHT22;59573;43.486;3.674;2022-12-07T16:33:01;5.30;71.40
71727;DHT22;59573;43.486;3.674;2022-12-07T16:35:27;5.30;71.30
71727;DHT22;59573;43.486;3.674;2022-12-07T16:37:53;5.30;71.10
71727;DHT22;59573;43.486;3.674;2022-12-07T16:40:18;5.30;70.80
71727;DHT22;59573;43.486;3.674;2022-12-07T16:42:44;5.40;70.80
71727;DHT22;59573;43.486;3.674;2022-12-07T16:45:10;5.20;71.10
71727;DHT22;59573;43.486;3.674;2022-12-07T16:47:40;5.10;71.50
71727;DHT22;59573;43.486;3.674;2022-12-07T16:50:06;4.80;73.60
71727;DHT22;59573;43.486;3.674;2022-12-07T16:52:33;4.70;73.30
71727;DHT22;59573;43.486;3.674;2022-12-07T16:54:59;4.70;73.00
71727;DHT22;59573;43.486;3.674;2022-12-07T16:57:25;4.40;76.80
71727;DHT22;59573;43.486;3.674;2022-12-07T16:59:53;4.20;76.00
71727;DHT22;59573;43.486;3.674;2022-12-07T17:02:19;4.30;75.30
71727;DHT22;59573;43.486;3.674;2022-12-07T17:04:45;4.10;76.90
71727;DHT22;59573;43.486;3.674;2022-12-07T17:07:11;4.10;76.90
71727;DHT22;59573;43.486;3.674;2022-12-07T17:09:37;3.90;78.70
71727;DHT22;59573;43.486;3.674;2022-12-07T17:12:03;3.80;79.70
71727;DHT22;59573;43.486;3.674;2022-12-07T17:14:30;3.60;79.60
71727;DHT22;59573;43.486;3.674;2022-12-07T17:17:14;3.70;79.20
71727;DHT22;59573;43.486;3.674;2022-12-07T17:19:40;3.80;77.60
71727;DHT22;59573;43.486;3.674;2022-12-07T17:22:08;4.10;75.70
71727;DHT22;59573;43.486;3.674;2022-12-07T17:24:36;4.40;74.30
71727;DHT22;59573;43.486;3.674;2022-12-07T17:27:02;4.50;73.20
71727;DHT22;59573;43.486;3.674;2022-12-07T17:29:28;4.60;72.30
71727;DHT22;59573;43.486;3.674;2022-12-07T17:31:53;4.40;73.30
71727;DHT22;59573;43.486;3.674;2022-12-07T17:34:19;4.40;73.10
71727;DHT22;59573;43.486;3.674;2022-12-07T17:36:45;4.30;73.60
71727;DHT22;59573;43.486;3.674;2022-12-07T17:39:15;4.30;73.20
71727;DHT22;59573;43.486;3.674;2022-12-07T17:41:41;4.40;73.00
71727;DHT22;59573;43.486;3.674;2022-12-07T17:44:27;4.30;73.00
71727;DHT22;59573;43.486;3.674;2022-12-07T17:46:53;4.10;73.70
71727;DHT22;59573;43.486;3.674;2022-12-07T17:49:27;4.00;74.30
71727;DHT22;59573;43.486;3.674;2022-12-07T17:51:53;3.80;76.00
71727;DHT22;59573;43.486;3.674;2022-12-07T17:54:37;3.60;77.70
71727;DHT22;59573;43.486;3.674;2022-12-07T17:57:03;3.40;78.00
71727;DHT22;59573;43.486;3.674;2022-12-07T17:59:28;3.40;78.00
71727;DHT22;59573;43.486;3.674;2022-12-07T18:01:54;3.30;78.80
71727;DHT22;59573;43.486;3.674;2022-12-07T18:04:20;3.20;79.70